<?xml version="1.0" encoding="UTF-8" standalone="no" ?>
<gpx xmlns="http://www.topografix.com/GPX/1/1" xmlns:xsi="http://www.w3.org/2001/XMLSchema-instance" xsi:schemaLocation="http://www.topografix.com/GPX/1/1 http://www.topografix.com/GPX/1/1/gpx.xsd" version="1.1" creator="VisuGPX - https://www.visugpx.com">
  <metadata>
    <name>18 Juin - De Aît Aîssa au col Tizi h'Mzik</name>
    <desc><![CDATA[Du gite au col de Tizi a preciser
]]></desc>
  </metadata>
  <trk>
    <name><![CDATA[2018-06-18 13:57:21]]></name>
    <trkseg>
      <trkpt lat="31.13548" lon="-7.9756">
        <ele>1796.14</ele>
        <time>2018-06-18T07:35:14Z</time>
      </trkpt>
      <trkpt lat="31.13507" lon="-7.97611">
        <ele>1797.08</ele>
        <time>2018-06-18T07:36:14Z</time>
      </trkpt>
      <trkpt lat="31.13466" lon="-7.97617">
        <ele>1802.36</ele>
        <time>2018-06-18T07:37:14Z</time>
      </trkpt>
      <trkpt lat="31.13431" lon="-7.97571">
        <ele>1796.01</ele>
        <time>2018-06-18T07:38:14Z</time>
      </trkpt>
      <trkpt lat="31.13364" lon="-7.97537">
        <ele>1792.86</ele>
        <time>2018-06-18T07:39:14Z</time>
      </trkpt>
      <trkpt lat="31.13344" lon="-7.97454">
        <ele>1790.46</ele>
        <time>2018-06-18T07:40:14Z</time>
      </trkpt>
      <trkpt lat="31.13299" lon="-7.97467">
        <ele>1792.13</ele>
        <time>2018-06-18T07:41:14Z</time>
      </trkpt>
      <trkpt lat="31.13242" lon="-7.97461">
        <ele>1794.04</ele>
        <time>2018-06-18T07:42:14Z</time>
      </trkpt>
      <trkpt lat="31.13199" lon="-7.97485">
        <ele>1791.01</ele>
        <time>2018-06-18T07:43:14Z</time>
      </trkpt>
      <trkpt lat="31.13148" lon="-7.97529">
        <ele>1787.52</ele>
        <time>2018-06-18T07:44:14Z</time>
      </trkpt>
      <trkpt lat="31.13098" lon="-7.97496">
        <ele>1779.56</ele>
        <time>2018-06-18T07:45:14Z</time>
      </trkpt>
      <trkpt lat="31.13046" lon="-7.97453">
        <ele>1770.44</ele>
        <time>2018-06-18T07:46:14Z</time>
      </trkpt>
      <trkpt lat="31.13005" lon="-7.97395">
        <ele>1761.55</ele>
        <time>2018-06-18T07:47:14Z</time>
      </trkpt>
      <trkpt lat="31.12953" lon="-7.97348">
        <ele>1753.82</ele>
        <time>2018-06-18T07:48:14Z</time>
      </trkpt>
      <trkpt lat="31.12923" lon="-7.97309">
        <ele>1752.1</ele>
        <time>2018-06-18T07:49:14Z</time>
      </trkpt>
      <trkpt lat="31.12883" lon="-7.97238">
        <ele>1754.47</ele>
        <time>2018-06-18T07:50:14Z</time>
      </trkpt>
      <trkpt lat="31.12857" lon="-7.97158">
        <ele>1753.75</ele>
        <time>2018-06-18T07:51:14Z</time>
      </trkpt>
      <trkpt lat="31.12809" lon="-7.97148">
        <ele>1756.38</ele>
        <time>2018-06-18T07:52:14Z</time>
      </trkpt>
      <trkpt lat="31.12768" lon="-7.97152">
        <ele>1759.37</ele>
        <time>2018-06-18T07:53:14Z</time>
      </trkpt>
      <trkpt lat="31.12706" lon="-7.97151">
        <ele>1757.78</ele>
        <time>2018-06-18T07:54:14Z</time>
      </trkpt>
      <trkpt lat="31.12642" lon="-7.97182">
        <ele>1762.47</ele>
        <time>2018-06-18T07:55:14Z</time>
      </trkpt>
      <trkpt lat="31.1259" lon="-7.97242">
        <ele>1768.84</ele>
        <time>2018-06-18T07:56:14Z</time>
      </trkpt>
      <trkpt lat="31.12537" lon="-7.97285">
        <ele>1767.62</ele>
        <time>2018-06-18T07:57:14Z</time>
      </trkpt>
      <trkpt lat="31.12477" lon="-7.973">
        <ele>1759.27</ele>
        <time>2018-06-18T07:58:14Z</time>
      </trkpt>
      <trkpt lat="31.12404" lon="-7.97292">
        <ele>1757.5</ele>
        <time>2018-06-18T07:59:14Z</time>
      </trkpt>
      <trkpt lat="31.12337" lon="-7.97274">
        <ele>1753.64</ele>
        <time>2018-06-18T08:00:14Z</time>
      </trkpt>
      <trkpt lat="31.12269" lon="-7.97321">
        <ele>1753.45</ele>
        <time>2018-06-18T08:01:14Z</time>
      </trkpt>
      <trkpt lat="31.12213" lon="-7.97343">
        <ele>1753.88</ele>
        <time>2018-06-18T08:02:14Z</time>
      </trkpt>
      <trkpt lat="31.12177" lon="-7.97315">
        <ele>1762.02</ele>
        <time>2018-06-18T08:03:14Z</time>
      </trkpt>
      <trkpt lat="31.12131" lon="-7.97303">
        <ele>1768.85</ele>
        <time>2018-06-18T08:04:14Z</time>
      </trkpt>
      <trkpt lat="31.12128" lon="-7.97321">
        <ele>1775.81</ele>
        <time>2018-06-18T08:05:14Z</time>
      </trkpt>
      <trkpt lat="31.12118" lon="-7.9738">
        <ele>1784.26</ele>
        <time>2018-06-18T08:06:14Z</time>
      </trkpt>
      <trkpt lat="31.1207" lon="-7.97414">
        <ele>1793.69</ele>
        <time>2018-06-18T08:07:14Z</time>
      </trkpt>
      <trkpt lat="31.12075" lon="-7.97387">
        <ele>1802.31</ele>
        <time>2018-06-18T08:08:14Z</time>
      </trkpt>
      <trkpt lat="31.12029" lon="-7.97423">
        <ele>1810.04</ele>
        <time>2018-06-18T08:09:14Z</time>
      </trkpt>
      <trkpt lat="31.11967" lon="-7.97466">
        <ele>1818.73</ele>
        <time>2018-06-18T08:10:14Z</time>
      </trkpt>
      <trkpt lat="31.11902" lon="-7.97462">
        <ele>1822.68</ele>
        <time>2018-06-18T08:11:14Z</time>
      </trkpt>
      <trkpt lat="31.1184" lon="-7.9745">
        <ele>1825.21</ele>
        <time>2018-06-18T08:12:14Z</time>
      </trkpt>
      <trkpt lat="31.11807" lon="-7.97446">
        <ele>1828.76</ele>
        <time>2018-06-18T08:13:14Z</time>
      </trkpt>
      <trkpt lat="31.11805" lon="-7.97445">
        <ele>1829</ele>
        <time>2018-06-18T08:14:14Z</time>
      </trkpt>
      <trkpt lat="31.11806" lon="-7.97448">
        <ele>1828.68</ele>
        <time>2018-06-18T08:15:14Z</time>
      </trkpt>
      <trkpt lat="31.11804" lon="-7.97446">
        <ele>1828.83</ele>
        <time>2018-06-18T08:16:14Z</time>
      </trkpt>
      <trkpt lat="31.118" lon="-7.97422">
        <ele>1837.34</ele>
        <time>2018-06-18T08:17:14Z</time>
      </trkpt>
      <trkpt lat="31.1183" lon="-7.97414">
        <ele>1846.23</ele>
        <time>2018-06-18T08:18:14Z</time>
      </trkpt>
      <trkpt lat="31.11836" lon="-7.97397">
        <ele>1854.13</ele>
        <time>2018-06-18T08:19:14Z</time>
      </trkpt>
      <trkpt lat="31.1183" lon="-7.97383">
        <ele>1861.47</ele>
        <time>2018-06-18T08:20:14Z</time>
      </trkpt>
      <trkpt lat="31.11845" lon="-7.97372">
        <ele>1869.46</ele>
        <time>2018-06-18T08:21:15Z</time>
      </trkpt>
      <trkpt lat="31.11836" lon="-7.97353">
        <ele>1877.64</ele>
        <time>2018-06-18T08:22:15Z</time>
      </trkpt>
      <trkpt lat="31.118" lon="-7.97339">
        <ele>1882.99</ele>
        <time>2018-06-18T08:23:15Z</time>
      </trkpt>
      <trkpt lat="31.11763" lon="-7.97334">
        <ele>1885.08</ele>
        <time>2018-06-18T08:24:15Z</time>
      </trkpt>
      <trkpt lat="31.11734" lon="-7.97306">
        <ele>1891.83</ele>
        <time>2018-06-18T08:25:15Z</time>
      </trkpt>
      <trkpt lat="31.11712" lon="-7.97267">
        <ele>1897.82</ele>
        <time>2018-06-18T08:26:15Z</time>
      </trkpt>
      <trkpt lat="31.11698" lon="-7.97256">
        <ele>1902.22</ele>
        <time>2018-06-18T08:27:15Z</time>
      </trkpt>
      <trkpt lat="31.11679" lon="-7.97231">
        <ele>1911.43</ele>
        <time>2018-06-18T08:28:15Z</time>
      </trkpt>
      <trkpt lat="31.11653" lon="-7.972">
        <ele>1914.8</ele>
        <time>2018-06-18T08:29:15Z</time>
      </trkpt>
      <trkpt lat="31.11624" lon="-7.97156">
        <ele>1918.24</ele>
        <time>2018-06-18T08:30:15Z</time>
      </trkpt>
      <trkpt lat="31.11605" lon="-7.97123">
        <ele>1921.93</ele>
        <time>2018-06-18T08:31:15Z</time>
      </trkpt>
      <trkpt lat="31.11593" lon="-7.9713">
        <ele>1929.2</ele>
        <time>2018-06-18T08:32:15Z</time>
      </trkpt>
      <trkpt lat="31.11596" lon="-7.97093">
        <ele>1938.3</ele>
        <time>2018-06-18T08:33:15Z</time>
      </trkpt>
      <trkpt lat="31.11609" lon="-7.97052">
        <ele>1944.76</ele>
        <time>2018-06-18T08:34:15Z</time>
      </trkpt>
      <trkpt lat="31.1161" lon="-7.97018">
        <ele>1947.04</ele>
        <time>2018-06-18T08:35:15Z</time>
      </trkpt>
      <trkpt lat="31.1163" lon="-7.96993">
        <ele>1950.41</ele>
        <time>2018-06-18T08:36:16Z</time>
      </trkpt>
      <trkpt lat="31.11616" lon="-7.97">
        <ele>1950.53</ele>
        <time>2018-06-18T08:37:16Z</time>
      </trkpt>
      <trkpt lat="31.11605" lon="-7.96992">
        <ele>1957.21</ele>
        <time>2018-06-18T08:38:16Z</time>
      </trkpt>
      <trkpt lat="31.11626" lon="-7.96971">
        <ele>1964.19</ele>
        <time>2018-06-18T08:39:16Z</time>
      </trkpt>
      <trkpt lat="31.11637" lon="-7.96935">
        <ele>1971.55</ele>
        <time>2018-06-18T08:40:16Z</time>
      </trkpt>
      <trkpt lat="31.11654" lon="-7.96898">
        <ele>1974.92</ele>
        <time>2018-06-18T08:41:16Z</time>
      </trkpt>
      <trkpt lat="31.11655" lon="-7.96897">
        <ele>1975.39</ele>
        <time>2018-06-18T08:42:16Z</time>
      </trkpt>
      <trkpt lat="31.11655" lon="-7.96903">
        <ele>1975.26</ele>
        <time>2018-06-18T08:43:17Z</time>
      </trkpt>
      <trkpt lat="31.11655" lon="-7.96899">
        <ele>1974.9</ele>
        <time>2018-06-18T08:44:17Z</time>
      </trkpt>
      <trkpt lat="31.11662" lon="-7.96899">
        <ele>1974.86</ele>
        <time>2018-06-18T08:45:18Z</time>
      </trkpt>
      <trkpt lat="31.11653" lon="-7.96902">
        <ele>1974.57</ele>
        <time>2018-06-18T08:46:18Z</time>
      </trkpt>
      <trkpt lat="31.11649" lon="-7.96897">
        <ele>1974.51</ele>
        <time>2018-06-18T08:47:18Z</time>
      </trkpt>
      <trkpt lat="31.1165" lon="-7.96902">
        <ele>1974.5</ele>
        <time>2018-06-18T08:48:18Z</time>
      </trkpt>
      <trkpt lat="31.1165" lon="-7.96898">
        <ele>1974.7</ele>
        <time>2018-06-18T08:49:18Z</time>
      </trkpt>
      <trkpt lat="31.11656" lon="-7.96895">
        <ele>1974.83</ele>
        <time>2018-06-18T08:50:18Z</time>
      </trkpt>
      <trkpt lat="31.11653" lon="-7.96894">
        <ele>1974.71</ele>
        <time>2018-06-18T08:51:19Z</time>
      </trkpt>
      <trkpt lat="31.11653" lon="-7.96894">
        <ele>1974.7</ele>
        <time>2018-06-18T08:52:20Z</time>
      </trkpt>
      <trkpt lat="31.11666" lon="-7.96881">
        <ele>1980.96</ele>
        <time>2018-06-18T08:53:20Z</time>
      </trkpt>
      <trkpt lat="31.11677" lon="-7.96862">
        <ele>1988.55</ele>
        <time>2018-06-18T08:54:20Z</time>
      </trkpt>
      <trkpt lat="31.11702" lon="-7.96857">
        <ele>1997.63</ele>
        <time>2018-06-18T08:55:20Z</time>
      </trkpt>
      <trkpt lat="31.11715" lon="-7.96823">
        <ele>2006.12</ele>
        <time>2018-06-18T08:56:20Z</time>
      </trkpt>
      <trkpt lat="31.11726" lon="-7.96799">
        <ele>2014.38</ele>
        <time>2018-06-18T08:57:20Z</time>
      </trkpt>
      <trkpt lat="31.11725" lon="-7.96768">
        <ele>2021.97</ele>
        <time>2018-06-18T08:58:20Z</time>
      </trkpt>
      <trkpt lat="31.1169" lon="-7.96767">
        <ele>2028.99</ele>
        <time>2018-06-18T08:59:20Z</time>
      </trkpt>
      <trkpt lat="31.11666" lon="-7.9676">
        <ele>2038.24</ele>
        <time>2018-06-18T09:00:20Z</time>
      </trkpt>
      <trkpt lat="31.1167" lon="-7.96741">
        <ele>2044.5</ele>
        <time>2018-06-18T09:01:20Z</time>
      </trkpt>
      <trkpt lat="31.11662" lon="-7.96731">
        <ele>2050.74</ele>
        <time>2018-06-18T09:02:20Z</time>
      </trkpt>
      <trkpt lat="31.11654" lon="-7.96733">
        <ele>2051.49</ele>
        <time>2018-06-18T09:03:20Z</time>
      </trkpt>
      <trkpt lat="31.11643" lon="-7.96717">
        <ele>2057.47</ele>
        <time>2018-06-18T09:04:20Z</time>
      </trkpt>
      <trkpt lat="31.11643" lon="-7.96693">
        <ele>2067.69</ele>
        <time>2018-06-18T09:05:20Z</time>
      </trkpt>
      <trkpt lat="31.11625" lon="-7.96681">
        <ele>2078.44</ele>
        <time>2018-06-18T09:06:20Z</time>
      </trkpt>
      <trkpt lat="31.1161" lon="-7.96658">
        <ele>2088.15</ele>
        <time>2018-06-18T09:07:20Z</time>
      </trkpt>
      <trkpt lat="31.11598" lon="-7.96639">
        <ele>2095.54</ele>
        <time>2018-06-18T09:08:20Z</time>
      </trkpt>
      <trkpt lat="31.11591" lon="-7.96622">
        <ele>2104.23</ele>
        <time>2018-06-18T09:09:21Z</time>
      </trkpt>
      <trkpt lat="31.11571" lon="-7.96616">
        <ele>2112.09</ele>
        <time>2018-06-18T09:10:21Z</time>
      </trkpt>
      <trkpt lat="31.11553" lon="-7.96609">
        <ele>2120.26</ele>
        <time>2018-06-18T09:11:21Z</time>
      </trkpt>
      <trkpt lat="31.11522" lon="-7.96621">
        <ele>2126.98</ele>
        <time>2018-06-18T09:12:21Z</time>
      </trkpt>
      <trkpt lat="31.11479" lon="-7.96622">
        <ele>2132.76</ele>
        <time>2018-06-18T09:13:21Z</time>
      </trkpt>
      <trkpt lat="31.11476" lon="-7.96611">
        <ele>2140</ele>
        <time>2018-06-18T09:14:21Z</time>
      </trkpt>
      <trkpt lat="31.1149" lon="-7.96573">
        <ele>2147.99</ele>
        <time>2018-06-18T09:15:21Z</time>
      </trkpt>
      <trkpt lat="31.11515" lon="-7.9654">
        <ele>2153.54</ele>
        <time>2018-06-18T09:16:21Z</time>
      </trkpt>
      <trkpt lat="31.11537" lon="-7.96503">
        <ele>2157.45</ele>
        <time>2018-06-18T09:17:21Z</time>
      </trkpt>
      <trkpt lat="31.11537" lon="-7.96459">
        <ele>2162.05</ele>
        <time>2018-06-18T09:18:21Z</time>
      </trkpt>
      <trkpt lat="31.11527" lon="-7.96438">
        <ele>2167.33</ele>
        <time>2018-06-18T09:19:21Z</time>
      </trkpt>
      <trkpt lat="31.11521" lon="-7.96436">
        <ele>2168.05</ele>
        <time>2018-06-18T09:20:21Z</time>
      </trkpt>
      <trkpt lat="31.11527" lon="-7.96434">
        <ele>2166.21</ele>
        <time>2018-06-18T09:21:21Z</time>
      </trkpt>
      <trkpt lat="31.11536" lon="-7.96433">
        <ele>2164.96</ele>
        <time>2018-06-18T09:22:21Z</time>
      </trkpt>
      <trkpt lat="31.11537" lon="-7.96431">
        <ele>2165.62</ele>
        <time>2018-06-18T09:23:21Z</time>
      </trkpt>
      <trkpt lat="31.11537" lon="-7.96431">
        <ele>2164.76</ele>
        <time>2018-06-18T09:24:21Z</time>
      </trkpt>
      <trkpt lat="31.11538" lon="-7.96433">
        <ele>2164.8</ele>
        <time>2018-06-18T09:25:21Z</time>
      </trkpt>
      <trkpt lat="31.11538" lon="-7.9643">
        <ele>2164.26</ele>
        <time>2018-06-18T09:26:21Z</time>
      </trkpt>
      <trkpt lat="31.1154" lon="-7.9643">
        <ele>2163.8</ele>
        <time>2018-06-18T09:27:21Z</time>
      </trkpt>
      <trkpt lat="31.11539" lon="-7.96426">
        <ele>2163.38</ele>
        <time>2018-06-18T09:28:21Z</time>
      </trkpt>
      <trkpt lat="31.11536" lon="-7.96434">
        <ele>2163.38</ele>
        <time>2018-06-18T09:29:22Z</time>
      </trkpt>
      <trkpt lat="31.11536" lon="-7.96438">
        <ele>2163.65</ele>
        <time>2018-06-18T09:30:22Z</time>
      </trkpt>
      <trkpt lat="31.11537" lon="-7.96434">
        <ele>2163.85</ele>
        <time>2018-06-18T09:31:22Z</time>
      </trkpt>
      <trkpt lat="31.11541" lon="-7.96434">
        <ele>2164.31</ele>
        <time>2018-06-18T09:32:28Z</time>
      </trkpt>
      <trkpt lat="31.11536" lon="-7.96438">
        <ele>2163.36</ele>
        <time>2018-06-18T09:33:28Z</time>
      </trkpt>
      <trkpt lat="31.11537" lon="-7.96433">
        <ele>2163.12</ele>
        <time>2018-06-18T09:34:28Z</time>
      </trkpt>
      <trkpt lat="31.11533" lon="-7.96428">
        <ele>2163.39</ele>
        <time>2018-06-18T09:35:28Z</time>
      </trkpt>
      <trkpt lat="31.11537" lon="-7.96435">
        <ele>2163.26</ele>
        <time>2018-06-18T09:36:28Z</time>
      </trkpt>
      <trkpt lat="31.11533" lon="-7.96428">
        <ele>2163.66</ele>
        <time>2018-06-18T09:37:28Z</time>
      </trkpt>
      <trkpt lat="31.11531" lon="-7.9642">
        <ele>2165.2</ele>
        <time>2018-06-18T09:38:28Z</time>
      </trkpt>
      <trkpt lat="31.11518" lon="-7.96399">
        <ele>2172.01</ele>
        <time>2018-06-18T09:39:28Z</time>
      </trkpt>
      <trkpt lat="31.1152" lon="-7.96376">
        <ele>2179.83</ele>
        <time>2018-06-18T09:40:28Z</time>
      </trkpt>
      <trkpt lat="31.115" lon="-7.96371">
        <ele>2187.38</ele>
        <time>2018-06-18T09:41:28Z</time>
      </trkpt>
      <trkpt lat="31.11489" lon="-7.96353">
        <ele>2194.05</ele>
        <time>2018-06-18T09:42:28Z</time>
      </trkpt>
      <trkpt lat="31.11482" lon="-7.96333">
        <ele>2200.7</ele>
        <time>2018-06-18T09:43:28Z</time>
      </trkpt>
      <trkpt lat="31.11454" lon="-7.96325">
        <ele>2208.23</ele>
        <time>2018-06-18T09:44:28Z</time>
      </trkpt>
      <trkpt lat="31.11418" lon="-7.9633">
        <ele>2214.69</ele>
        <time>2018-06-18T09:45:28Z</time>
      </trkpt>
      <trkpt lat="31.11397" lon="-7.96304">
        <ele>2221.44</ele>
        <time>2018-06-18T09:46:28Z</time>
      </trkpt>
      <trkpt lat="31.11398" lon="-7.96273">
        <ele>2228.69</ele>
        <time>2018-06-18T09:47:28Z</time>
      </trkpt>
      <trkpt lat="31.11394" lon="-7.96247">
        <ele>2235.43</ele>
        <time>2018-06-18T09:48:28Z</time>
      </trkpt>
      <trkpt lat="31.11383" lon="-7.96224">
        <ele>2242.85</ele>
        <time>2018-06-18T09:49:28Z</time>
      </trkpt>
      <trkpt lat="31.11372" lon="-7.96201">
        <ele>2249.29</ele>
        <time>2018-06-18T09:50:28Z</time>
      </trkpt>
      <trkpt lat="31.11385" lon="-7.96169">
        <ele>2256.11</ele>
        <time>2018-06-18T09:51:28Z</time>
      </trkpt>
      <trkpt lat="31.1138" lon="-7.96162">
        <ele>2256.6</ele>
        <time>2018-06-18T09:52:28Z</time>
      </trkpt>
      <trkpt lat="31.11371" lon="-7.96159">
        <ele>2259.37</ele>
        <time>2018-06-18T09:53:28Z</time>
      </trkpt>
      <trkpt lat="31.11363" lon="-7.9615">
        <ele>2262.05</ele>
        <time>2018-06-18T09:54:28Z</time>
      </trkpt>
      <trkpt lat="31.11352" lon="-7.96146">
        <ele>2262.95</ele>
        <time>2018-06-18T09:55:30Z</time>
      </trkpt>
      <trkpt lat="31.11376" lon="-7.96126">
        <ele>2267.25</ele>
        <time>2018-06-18T09:56:30Z</time>
      </trkpt>
      <trkpt lat="31.11396" lon="-7.96096">
        <ele>2273.35</ele>
        <time>2018-06-18T09:57:30Z</time>
      </trkpt>
      <trkpt lat="31.1142" lon="-7.96067">
        <ele>2280.45</ele>
        <time>2018-06-18T09:58:30Z</time>
      </trkpt>
      <trkpt lat="31.1139" lon="-7.96049">
        <ele>2287.78</ele>
        <time>2018-06-18T09:59:30Z</time>
      </trkpt>
      <trkpt lat="31.11402" lon="-7.96015">
        <ele>2296.08</ele>
        <time>2018-06-18T10:00:30Z</time>
      </trkpt>
      <trkpt lat="31.11418" lon="-7.95976">
        <ele>2303.22</ele>
        <time>2018-06-18T10:01:30Z</time>
      </trkpt>
      <trkpt lat="31.11439" lon="-7.95935">
        <ele>2310.07</ele>
        <time>2018-06-18T10:02:30Z</time>
      </trkpt>
      <trkpt lat="31.11454" lon="-7.95891">
        <ele>2318.17</ele>
        <time>2018-06-18T10:03:30Z</time>
      </trkpt>
      <trkpt lat="31.11468" lon="-7.95864">
        <ele>2323.56</ele>
        <time>2018-06-18T10:04:30Z</time>
      </trkpt>
      <trkpt lat="31.1149" lon="-7.95815">
        <ele>2331.28</ele>
        <time>2018-06-18T10:05:30Z</time>
      </trkpt>
      <trkpt lat="31.11519" lon="-7.95769">
        <ele>2336.41</ele>
        <time>2018-06-18T10:06:30Z</time>
      </trkpt>
      <trkpt lat="31.11536" lon="-7.95722">
        <ele>2342.16</ele>
        <time>2018-06-18T10:07:30Z</time>
      </trkpt>
      <trkpt lat="31.11549" lon="-7.95683">
        <ele>2349.78</ele>
        <time>2018-06-18T10:08:30Z</time>
      </trkpt>
      <trkpt lat="31.11566" lon="-7.9564">
        <ele>2357.04</ele>
        <time>2018-06-18T10:09:30Z</time>
      </trkpt>
      <trkpt lat="31.11579" lon="-7.95593">
        <ele>2361.85</ele>
        <time>2018-06-18T10:10:30Z</time>
      </trkpt>
      <trkpt lat="31.11577" lon="-7.9554">
        <ele>2367.93</ele>
        <time>2018-06-18T10:11:30Z</time>
      </trkpt>
      <trkpt lat="31.1155" lon="-7.95516">
        <ele>2372.09</ele>
        <time>2018-06-18T10:12:30Z</time>
      </trkpt>
      <trkpt lat="31.11538" lon="-7.95472">
        <ele>2375.01</ele>
        <time>2018-06-18T10:13:30Z</time>
      </trkpt>
      <trkpt lat="31.11517" lon="-7.95441">
        <ele>2375.76</ele>
        <time>2018-06-18T10:14:30Z</time>
      </trkpt>
      <trkpt lat="31.1152" lon="-7.95382">
        <ele>2366.83</ele>
        <time>2018-06-18T10:15:30Z</time>
      </trkpt>
      <trkpt lat="31.1153" lon="-7.95364">
        <ele>2369.84</ele>
        <time>2018-06-18T10:16:30Z</time>
      </trkpt>
      <trkpt lat="31.11555" lon="-7.95363">
        <ele>2371.89</ele>
        <time>2018-06-18T10:17:30Z</time>
      </trkpt>
      <trkpt lat="31.11564" lon="-7.95364">
        <ele>2371.58</ele>
        <time>2018-06-18T10:18:34Z</time>
      </trkpt>
      <trkpt lat="31.11588" lon="-7.95345">
        <ele>2366.81</ele>
        <time>2018-06-18T10:19:34Z</time>
      </trkpt>
      <trkpt lat="31.11605" lon="-7.95313">
        <ele>2366.99</ele>
        <time>2018-06-18T10:20:34Z</time>
      </trkpt>
      <trkpt lat="31.11632" lon="-7.95315">
        <ele>2368.44</ele>
        <time>2018-06-18T10:21:34Z</time>
      </trkpt>
      <trkpt lat="31.11685" lon="-7.95315">
        <ele>2375.77</ele>
        <time>2018-06-18T10:22:34Z</time>
      </trkpt>
      <trkpt lat="31.11737" lon="-7.95312">
        <ele>2379.1</ele>
        <time>2018-06-18T10:23:34Z</time>
      </trkpt>
      <trkpt lat="31.11776" lon="-7.95289">
        <ele>2386.04</ele>
        <time>2018-06-18T10:24:34Z</time>
      </trkpt>
      <trkpt lat="31.11821" lon="-7.95258">
        <ele>2390.26</ele>
        <time>2018-06-18T10:25:34Z</time>
      </trkpt>
      <trkpt lat="31.11836" lon="-7.952">
        <ele>2392.67</ele>
        <time>2018-06-18T10:26:34Z</time>
      </trkpt>
      <trkpt lat="31.11865" lon="-7.95148">
        <ele>2391.89</ele>
        <time>2018-06-18T10:27:34Z</time>
      </trkpt>
      <trkpt lat="31.11914" lon="-7.95123">
        <ele>2392.2</ele>
        <time>2018-06-18T10:28:34Z</time>
      </trkpt>
      <trkpt lat="31.11961" lon="-7.95105">
        <ele>2393.28</ele>
        <time>2018-06-18T10:29:34Z</time>
      </trkpt>
      <trkpt lat="31.11994" lon="-7.95105">
        <ele>2400.59</ele>
        <time>2018-06-18T10:30:34Z</time>
      </trkpt>
      <trkpt lat="31.12041" lon="-7.95105">
        <ele>2405.99</ele>
        <time>2018-06-18T10:31:34Z</time>
      </trkpt>
      <trkpt lat="31.12089" lon="-7.95115">
        <ele>2409.4</ele>
        <time>2018-06-18T10:32:34Z</time>
      </trkpt>
      <trkpt lat="31.12122" lon="-7.95117">
        <ele>2414.43</ele>
        <time>2018-06-18T10:33:34Z</time>
      </trkpt>
      <trkpt lat="31.12165" lon="-7.95125">
        <ele>2418.56</ele>
        <time>2018-06-18T10:34:34Z</time>
      </trkpt>
      <trkpt lat="31.12212" lon="-7.95133">
        <ele>2424.37</ele>
        <time>2018-06-18T10:35:34Z</time>
      </trkpt>
      <trkpt lat="31.12263" lon="-7.95134">
        <ele>2428.13</ele>
        <time>2018-06-18T10:36:34Z</time>
      </trkpt>
      <trkpt lat="31.12307" lon="-7.95119">
        <ele>2431.26</ele>
        <time>2018-06-18T10:37:34Z</time>
      </trkpt>
      <trkpt lat="31.12359" lon="-7.95113">
        <ele>2431.84</ele>
        <time>2018-06-18T10:38:34Z</time>
      </trkpt>
      <trkpt lat="31.12378" lon="-7.95118">
        <ele>2432.26</ele>
        <time>2018-06-18T10:39:34Z</time>
      </trkpt>
      <trkpt lat="31.12405" lon="-7.95117">
        <ele>2432.5</ele>
        <time>2018-06-18T10:40:34Z</time>
      </trkpt>
      <trkpt lat="31.1242" lon="-7.95133">
        <ele>2432.22</ele>
        <time>2018-06-18T10:41:38Z</time>
      </trkpt>
      <trkpt lat="31.12378" lon="-7.95118">
        <ele>2431.6</ele>
        <time>2018-06-18T10:42:39Z</time>
      </trkpt>
      <trkpt lat="31.12376" lon="-7.95114">
        <ele>2431.15</ele>
        <time>2018-06-18T10:43:39Z</time>
      </trkpt>
      <trkpt lat="31.12374" lon="-7.95113">
        <ele>2431.77</ele>
        <time>2018-06-18T10:44:39Z</time>
      </trkpt>
      <trkpt lat="31.12375" lon="-7.95113">
        <ele>2432.41</ele>
        <time>2018-06-18T10:45:39Z</time>
      </trkpt>
      <trkpt lat="31.12377" lon="-7.95114">
        <ele>2431.19</ele>
        <time>2018-06-18T10:46:39Z</time>
      </trkpt>
      <trkpt lat="31.12376" lon="-7.95114">
        <ele>2430.65</ele>
        <time>2018-06-18T10:47:39Z</time>
      </trkpt>
      <trkpt lat="31.12375" lon="-7.95112">
        <ele>2430.82</ele>
        <time>2018-06-18T10:48:39Z</time>
      </trkpt>
      <trkpt lat="31.12374" lon="-7.95112">
        <ele>2430.9</ele>
        <time>2018-06-18T10:49:39Z</time>
      </trkpt>
      <trkpt lat="31.12376" lon="-7.95113">
        <ele>2430.81</ele>
        <time>2018-06-18T10:50:39Z</time>
      </trkpt>
      <trkpt lat="31.12381" lon="-7.95114">
        <ele>2431.21</ele>
        <time>2018-06-18T10:51:40Z</time>
      </trkpt>
      <trkpt lat="31.12389" lon="-7.95104">
        <ele>2427.59</ele>
        <time>2018-06-18T10:52:40Z</time>
      </trkpt>
      <trkpt lat="31.1239" lon="-7.95102">
        <ele>2427.39</ele>
        <time>2018-06-18T10:53:40Z</time>
      </trkpt>
      <trkpt lat="31.1239" lon="-7.95102">
        <ele>2427.02</ele>
        <time>2018-06-18T10:54:40Z</time>
      </trkpt>
      <trkpt lat="31.12388" lon="-7.95101">
        <ele>2428</ele>
        <time>2018-06-18T10:55:40Z</time>
      </trkpt>
      <trkpt lat="31.12374" lon="-7.9511">
        <ele>2431.72</ele>
        <time>2018-06-18T10:56:40Z</time>
      </trkpt>
      <trkpt lat="31.12373" lon="-7.95113">
        <ele>2431.2</ele>
        <time>2018-06-18T10:57:40Z</time>
      </trkpt>
      <trkpt lat="31.12374" lon="-7.95113">
        <ele>2431.46</ele>
        <time>2018-06-18T10:58:40Z</time>
      </trkpt>
      <trkpt lat="31.12373" lon="-7.95112">
        <ele>2432.16</ele>
        <time>2018-06-18T10:59:40Z</time>
      </trkpt>
      <trkpt lat="31.12375" lon="-7.95115">
        <ele>2431.99</ele>
        <time>2018-06-18T11:00:41Z</time>
      </trkpt>
      <trkpt lat="31.12374" lon="-7.95114">
        <ele>2432.27</ele>
        <time>2018-06-18T11:01:41Z</time>
      </trkpt>
      <trkpt lat="31.12372" lon="-7.95114">
        <ele>2431.9</ele>
        <time>2018-06-18T11:02:41Z</time>
      </trkpt>
      <trkpt lat="31.12385" lon="-7.95121">
        <ele>2432.34</ele>
        <time>2018-06-18T11:03:41Z</time>
      </trkpt>
      <trkpt lat="31.12385" lon="-7.95123">
        <ele>2432.2</ele>
        <time>2018-06-18T11:04:44Z</time>
      </trkpt>
      <trkpt lat="31.12386" lon="-7.95122">
        <ele>2431.49</ele>
        <time>2018-06-18T11:05:44Z</time>
      </trkpt>
      <trkpt lat="31.12385" lon="-7.95123">
        <ele>2431.79</ele>
        <time>2018-06-18T11:06:44Z</time>
      </trkpt>
      <trkpt lat="31.12376" lon="-7.95125">
        <ele>2431.9</ele>
        <time>2018-06-18T11:07:44Z</time>
      </trkpt>
      <trkpt lat="31.12383" lon="-7.95119">
        <ele>2432.45</ele>
        <time>2018-06-18T11:08:44Z</time>
      </trkpt>
      <trkpt lat="31.12384" lon="-7.9512">
        <ele>2432.32</ele>
        <time>2018-06-18T11:09:44Z</time>
      </trkpt>
      <trkpt lat="31.12371" lon="-7.95114">
        <ele>2430.96</ele>
        <time>2018-06-18T11:10:44Z</time>
      </trkpt>
      <trkpt lat="31.12385" lon="-7.9512">
        <ele>2431.49</ele>
        <time>2018-06-18T11:11:44Z</time>
      </trkpt>
      <trkpt lat="31.12385" lon="-7.95122">
        <ele>2432.46</ele>
        <time>2018-06-18T11:12:44Z</time>
      </trkpt>
      <trkpt lat="31.12383" lon="-7.95122">
        <ele>2432.56</ele>
        <time>2018-06-18T11:13:44Z</time>
      </trkpt>
      <trkpt lat="31.12388" lon="-7.95126">
        <ele>2432.21</ele>
        <time>2018-06-18T11:14:45Z</time>
      </trkpt>
      <trkpt lat="31.12387" lon="-7.95125">
        <ele>2432.39</ele>
        <time>2018-06-18T11:15:45Z</time>
      </trkpt>
      <trkpt lat="31.12388" lon="-7.95125">
        <ele>2433.18</ele>
        <time>2018-06-18T11:16:45Z</time>
      </trkpt>
      <trkpt lat="31.12384" lon="-7.95122">
        <ele>2433.08</ele>
        <time>2018-06-18T11:17:45Z</time>
      </trkpt>
      <trkpt lat="31.12386" lon="-7.95122">
        <ele>2434.27</ele>
        <time>2018-06-18T11:18:45Z</time>
      </trkpt>
      <trkpt lat="31.12372" lon="-7.95119">
        <ele>2433.51</ele>
        <time>2018-06-18T11:19:45Z</time>
      </trkpt>
      <trkpt lat="31.12358" lon="-7.95146">
        <ele>2429.58</ele>
        <time>2018-06-18T11:20:45Z</time>
      </trkpt>
      <trkpt lat="31.12357" lon="-7.95146">
        <ele>2429.87</ele>
        <time>2018-06-18T11:21:45Z</time>
      </trkpt>
      <trkpt lat="31.12357" lon="-7.95147">
        <ele>2429.83</ele>
        <time>2018-06-18T11:22:45Z</time>
      </trkpt>
      <trkpt lat="31.12355" lon="-7.95144">
        <ele>2429.6</ele>
        <time>2018-06-18T11:23:45Z</time>
      </trkpt>
      <trkpt lat="31.12356" lon="-7.95146">
        <ele>2429.4</ele>
        <time>2018-06-18T11:24:45Z</time>
      </trkpt>
      <trkpt lat="31.12355" lon="-7.95146">
        <ele>2428.42</ele>
        <time>2018-06-18T11:25:45Z</time>
      </trkpt>
      <trkpt lat="31.12356" lon="-7.95147">
        <ele>2428.82</ele>
        <time>2018-06-18T11:26:45Z</time>
      </trkpt>
      <trkpt lat="31.12358" lon="-7.95149">
        <ele>2428.96</ele>
        <time>2018-06-18T11:27:45Z</time>
      </trkpt>
      <trkpt lat="31.12356" lon="-7.95149">
        <ele>2428.7</ele>
        <time>2018-06-18T11:28:46Z</time>
      </trkpt>
      <trkpt lat="31.12361" lon="-7.95144">
        <ele>2428.31</ele>
        <time>2018-06-18T11:29:46Z</time>
      </trkpt>
      <trkpt lat="31.12355" lon="-7.95145">
        <ele>2428.95</ele>
        <time>2018-06-18T11:30:46Z</time>
      </trkpt>
      <trkpt lat="31.12357" lon="-7.95145">
        <ele>2429.39</ele>
        <time>2018-06-18T11:31:46Z</time>
      </trkpt>
      <trkpt lat="31.12356" lon="-7.95146">
        <ele>2428.83</ele>
        <time>2018-06-18T11:32:46Z</time>
      </trkpt>
      <trkpt lat="31.12357" lon="-7.95144">
        <ele>2428.86</ele>
        <time>2018-06-18T11:33:46Z</time>
      </trkpt>
      <trkpt lat="31.12366" lon="-7.95142">
        <ele>2429.16</ele>
        <time>2018-06-18T11:34:46Z</time>
      </trkpt>
      <trkpt lat="31.12357" lon="-7.95147">
        <ele>2429.28</ele>
        <time>2018-06-18T11:35:46Z</time>
      </trkpt>
      <trkpt lat="31.12359" lon="-7.95146">
        <ele>2429.53</ele>
        <time>2018-06-18T11:36:46Z</time>
      </trkpt>
      <trkpt lat="31.12358" lon="-7.95146">
        <ele>2429.47</ele>
        <time>2018-06-18T11:37:46Z</time>
      </trkpt>
      <trkpt lat="31.12357" lon="-7.95146">
        <ele>2429.52</ele>
        <time>2018-06-18T11:38:46Z</time>
      </trkpt>
      <trkpt lat="31.12358" lon="-7.95149">
        <ele>2429.78</ele>
        <time>2018-06-18T11:39:46Z</time>
      </trkpt>
      <trkpt lat="31.12354" lon="-7.95146">
        <ele>2429.95</ele>
        <time>2018-06-18T11:40:46Z</time>
      </trkpt>
      <trkpt lat="31.12357" lon="-7.95146">
        <ele>2429.91</ele>
        <time>2018-06-18T11:41:46Z</time>
      </trkpt>
      <trkpt lat="31.12358" lon="-7.95145">
        <ele>2429.67</ele>
        <time>2018-06-18T11:42:46Z</time>
      </trkpt>
      <trkpt lat="31.12359" lon="-7.95147">
        <ele>2429.54</ele>
        <time>2018-06-18T11:43:43Z</time>
      </trkpt>
    </trkseg>
  </trk>
</gpx>